sensor_id;sensor_type;location;lat;lon;timestamp;temperature;humidity
72602;DHT22;60644;55.858;37.390;2023-01-15T00:00:47;-0.58;70.91
72602;DHT22;60644;55.858;37.390;2023-01-15T00:03:13;-0.60;71.00
72602;DHT22;60644;55.858;37.390;2023-01-15T00:05:39;-0.56;71.02
72602;DHT22;60644;55.858;37.390;2023-01-15T00:08:05;-0.60;70.84
72602;DHT22;60644;55.858;37.390;2023-01-15T00:10:31;-0.61;71.04
72602;DHT22;60644;55.858;37.390;2023-01-15T00:12:57;-0.59;71.07
72602;DHT22;60644;55.858;37.390;2023-01-15T00:15:23;-0.60;70.86
72602;DHT22;60644;55.858;37.390;2023-01-15T00:17:49;-0.59;71.03
72602;DHT22;60644;55.858;37.390;2023-01-15T00:20:15;-0.59;71.03
72602;DHT22;60644;55.858;37.390;2023-01-15T00:22:41;-0.60;70.97
72602;DHT22;60644;55.858;37.390;2023-01-15T00:25:09;-0.64;71.03
72602;DHT22;60644;55.858;37.390;2023-01-15T00:27:53;-0.56;71.11
72602;DHT22;60644;55.858;37.390;2023-01-15T00:30:19;-0.68;70.98
72602;DHT22;60644;55.858;37.390;2023-01-15T00:32:46;-0.67;71.06
72602;DHT22;60644;55.858;37.390;2023-01-15T00:35:22;-0.72;71.29
72602;DHT22;60644;55.858;37.390;2023-01-15T00:37:49;-0.71;71.27
72602;DHT22;60644;55.858;37.390;2023-01-15T00:40:17;-0.65;71.24
72602;DHT22;60644;55.858;37.390;2023-01-15T00:42:43;-0.62;71.05
72602;DHT22;60644;55.858;37.390;2023-01-15T00:45:10;-0.62;71.03
72602;DHT22;60644;55.858;37.390;2023-01-15T00:47:38;-0.57;71.10
72602;DHT22;60644;55.858;37.390;2023-01-15T00:50:06;-0.64;71.08
72602;DHT22;60644;55.858;37.390;2023-01-15T00:52:33;-0.66;71.06
72602;DHT22;60644;55.858;37.390;2023-01-15T00:54:59;-0.62;71.11
72602;DHT22;60644;55.858;37.390;2023-01-15T00:57:26;-0.65;71.05
72602;DHT22;60644;55.858;37.390;2023-01-15T00:59:52;-0.62;71.10
72602;DHT22;60644;55.858;37.390;2023-01-15T01:02:18;-0.61;71.01
72602;DHT22;60644;55.858;37.390;2023-01-15T01:04:44;-0.67;71.03
72602;DHT22;60644;55.858;37.390;2023-01-15T01:07:11;-0.69;71.06
72602;DHT22;60644;55.858;37.390;2023-01-15T01:09:37;-0.65;71.08
72602;DHT22;60644;55.858;37.390;2023-01-15T01:12:03;-0.69;71.09
72602;DHT22;60644;55.858;37.390;2023-01-15T01:14:29;-0.75;71.16
72602;DHT22;60644;55.858;37.390;2023-01-15T01:16:55;-0.69;71.22
72602;DHT22;60644;55.858;37.390;2023-01-15T01:19:23;-0.61;71.10
72602;DHT22;60644;55.858;37.390;2023-01-15T01:21:50;-0.62;71.00
72602;DHT22;60644;55.858;37.390;2023-01-15T01:24:18;-0.65;70.77
72602;DHT22;60644;55.858;37.390;2023-01-15T01:26:45;-0.66;70.88
72602;DHT22;60644;55.858;37.390;2023-01-15T01:29:16;-0.60;70.93
72602;DHT22;60644;55.858;37.390;2023-01-15T01:31:42;-0.62;70.89
72602;DHT22;60644;55.858;37.390;2023-01-15T01:34:09;-0.59;70.88
72602;DHT22;60644;55.858;37.390;2023-01-15T01:36:38;-0.60;70.85
72602;DHT22;60644;55.858;37.390;2023-01-15T01:39:06;-0.65;70.77
72602;DHT22;60644;55.858;37.390;2023-01-15T01:41:34;-0.60;70.95
72602;DHT22;60644;55.858;37.390;2023-01-15T01:44:56;-0.60;70.90
72602;DHT22;60644;55.858;37.390;2023-01-15T01:46:53;-0.68;70.87
72602;DHT22;60644;55.858;37.390;2023-01-15T01:49:20;-0.69;71.01
72602;DHT22;60644;55.858;37.390;2023-01-15T01:51:57;-0.69;70.95
72602;DHT22;60644;55.858;37.390;2023-01-15T01:54:25;-0.72;71.01
72602;DHT22;60644;55.858;37.390;2023-01-15T01:56:52;-0.74;71.18
72602;DHT22;60644;55.858;37.390;2023-01-15T01:59:20;-0.74;71.27
72602;DHT22;60644;55.858;37.390;2023-01-15T02:01:47;-0.77;71.34
72602;DHT22;60644;55.858;37.390;2023-01-15T02:04:14;-0.70;71.25
72602;DHT22;60644;55.858;37.390;2023-01-15T02:06:43;-0.70;71.15
72602;DHT22;60644;55.858;37.390;2023-01-15T02:09:09;-0.69;71.19
72602;DHT22;60644;55.858;37.390;2023-01-15T02:11:35;-0.70;71.19
72602;DHT22;60644;55.858;37.390;2023-01-15T02:14:11;-0.70;71.10
72602;DHT22;60644;55.858;37.390;2023-01-15T02:28:34;-0.81;71.55
72602;DHT22;60644;55.858;37.390;2023-01-15T02:31:17;-0.75;71.42
72602;DHT22;60644;55.858;37.390;2023-01-15T02:34:09;-0.81;71.43
72602;DHT22;60644;55.858;37.390;2023-01-15T02:36:40;-0.75;71.41
72602;DHT22;60644;55.858;37.390;2023-01-15T02:39:17;-0.76;71.42
72602;DHT22;60644;55.858;37.390;2023-01-15T02:41:47;-0.76;71.42
72602;DHT22;60644;55.858;37.390;2023-01-15T02:44:19;-0.80;71.52
72602;DHT22;60644;55.858;37.390;2023-01-15T02:46:47;-0.74;71.32
72602;DHT22;60644;55.858;37.390;2023-01-15T02:49:17;-0.71;71.37
72602;DHT22;60644;55.858;37.390;2023-01-15T02:54:25;-0.72;71.30
72602;DHT22;60644;55.858;37.390;2023-01-15T02:56:52;-0.72;71.35
72602;DHT22;60644;55.858;37.390;2023-01-15T02:59:24;-0.65;71.31
72602;DHT22;60644;55.858;37.390;2023-01-15T03:01:57;-0.60;71.19
72602;DHT22;60644;55.858;37.390;2023-01-15T03:07:04;-0.66;71.20
72602;DHT22;60644;55.858;37.390;2023-01-15T03:09:34;-0.62;71.16
72602;DHT22;60644;55.858;37.390;2023-01-15T03:12:10;-0.64;71.11
72602;DHT22;60644;55.858;37.390;2023-01-15T03:14:51;-0.67;71.06
72602;DHT22;60644;55.858;37.390;2023-01-15T03:20:28;-0.64;71.10
72602;DHT22;60644;55.858;37.390;2023-01-15T03:23:01;-0.62;71.12
72602;DHT22;60644;55.858;37.390;2023-01-15T03:25:34;-0.66;71.10
72602;DHT22;60644;55.858;37.390;2023-01-15T03:28:03;-0.65;71.25
72602;DHT22;60644;55.858;37.390;2023-01-15T03:30:30;-0.61;71.29
72602;DHT22;60644;55.858;37.390;2023-01-15T03:32:57;-0.65;71.39
72602;DHT22;60644;55.858;37.390;2023-01-15T03:38:20;-0.69;71.88
72602;DHT22;60644;55.858;37.390;2023-01-15T03:44:01;-0.73;72.42
72602;DHT22;60644;55.858;37.390;2023-01-15T03:46:53;-0.77;73.06
72602;DHT22;60644;55.858;37.390;2023-01-15T03:52:30;-0.82;75.14
72602;DHT22;60644;55.858;37.390;2023-01-15T03:55:19;-0.83;75.47
72602;DHT22;60644;55.858;37.390;2023-01-15T03:58:04;-0.87;75.73
72602;DHT22;60644;55.858;37.390;2023-01-15T04:00:57;-0.95;75.85
72602;DHT22;60644;55.858;37.390;2023-01-15T04:03:27;-0.94;75.60
72602;DHT22;60644;55.858;37.390;2023-01-15T04:05:58;-0.96;75.55
72602;DHT22;60644;55.858;37.390;2023-01-15T04:08:28;-0.97;75.87
72602;DHT22;60644;55.858;37.390;2023-01-15T04:10:57;-1.00;75.92
72602;DHT22;60644;55.858;37.390;2023-01-15T04:13:28;-0.98;75.86
72602;DHT22;60644;55.858;37.390;2023-01-15T04:15:55;-0.96;75.70
72602;DHT22;60644;55.858;37.390;2023-01-15T04:18:21;-1.02;75.89
72602;DHT22;60644;55.858;37.390;2023-01-15T04:20:47;-0.97;75.60
72602;DHT22;60644;55.858;37.390;2023-01-15T04:23:14;-0.98;75.95
72602;DHT22;60644;55.858;37.390;2023-01-15T04:25:41;-0.95;75.81
72602;DHT22;60644;55.858;37.390;2023-01-15T04:28:07;-0.95;75.79
72602;DHT22;60644;55.858;37.390;2023-01-15T04:30:35;-0.91;76.17
72602;DHT22;60644;55.858;37.390;2023-01-15T04:33:01;-0.95;76.16
72602;DHT22;60644;55.858;37.390;2023-01-15T04:35:28;-0.91;76.21
72602;DHT22;60644;55.858;37.390;2023-01-15T04:37:57;-0.86;76.37
72602;DHT22;60644;55.858;37.390;2023-01-15T04:40:24;-0.86;76.31
72602;DHT22;60644;55.858;37.390;2023-01-15T04:43:12;-0.88;76.25
72602;DHT22;60644;55.858;37.390;2023-01-15T04:45:57;-0.94;76.53
72602;DHT22;60644;55.858;37.390;2023-01-15T04:48:23;-0.94;76.68
72602;DHT22;60644;55.858;37.390;2023-01-15T04:50:51;-0.96;76.80
72602;DHT22;60644;55.858;37.390;2023-01-15T04:53:17;-0.96;77.15
72602;DHT22;60644;55.858;37.390;2023-01-15T04:55:42;-0.96;76.95
72602;DHT22;60644;55.858;37.390;2023-01-15T04:58:08;-0.96;76.99
72602;DHT22;60644;55.858;37.390;2023-01-15T05:00:35;-0.91;76.99
72602;DHT22;60644;55.858;37.390;2023-01-15T05:03:01;-0.85;76.48
72602;DHT22;60644;55.858;37.390;2023-01-15T05:05:26;-0.82;76.41
72602;DHT22;60644;55.858;37.390;2023-01-15T05:07:53;-0.85;76.45
72602;DHT22;60644;55.858;37.390;2023-01-15T05:10:19;-0.84;76.66
72602;DHT22;60644;55.858;37.390;2023-01-15T05:12:44;-0.82;76.39
72602;DHT22;60644;55.858;37.390;2023-01-15T05:15:10;-0.84;76.48
72602;DHT22;60644;55.858;37.390;2023-01-15T05:17:36;-0.84;76.41
72602;DHT22;60644;55.858;37.390;2023-01-15T05:20:02;-0.88;76.94
72602;DHT22;60644;55.858;37.390;2023-01-15T05:22:29;-0.89;77.28
72602;DHT22;60644;55.858;37.390;2023-01-15T05:24:55;-0.84;77.14
72602;DHT22;60644;55.858;37.390;2023-01-15T05:27:20;-0.88;77.20
72602;DHT22;60644;55.858;37.390;2023-01-15T05:29:46;-0.87;77.39
72602;DHT22;60644;55.858;37.390;2023-01-15T05:32:12;-0.89;77.66
72602;DHT22;60644;55.858;37.390;2023-01-15T05:34:38;-0.89;77.70
72602;DHT22;60644;55.858;37.390;2023-01-15T05:37:04;-0.87;76.95
72602;DHT22;60644;55.858;37.390;2023-01-15T05:39:30;-0.93;77.41
72602;DHT22;60644;55.858;37.390;2023-01-15T05:41:56;-0.87;76.73
72602;DHT22;60644;55.858;37.390;2023-01-15T05:44:27;-0.84;76.83
72602;DHT22;60644;55.858;37.390;2023-01-15T05:47:00;-0.76;76.49
72602;DHT22;60644;55.858;37.390;2023-01-15T05:49:32;-0.74;76.21
72602;DHT22;60644;55.858;37.390;2023-01-15T05:52:00;-0.82;76.21
72602;DHT22;60644;55.858;37.390;2023-01-15T05:54:29;-0.79;75.92
72602;DHT22;60644;55.858;37.390;2023-01-15T05:56:56;-0.79;76.01
72602;DHT22;60644;55.858;37.390;2023-01-15T05:59:24;-0.76;75.78
72602;DHT22;60644;55.858;37.390;2023-01-15T06:01:53;-0.76;76.18
72602;DHT22;60644;55.858;37.390;2023-01-15T06:04:22;-0.79;76.08
72602;DHT22;60644;55.858;37.390;2023-01-15T06:06:51;-0.81;76.12
72602;DHT22;60644;55.858;37.390;2023-01-15T06:09:18;-0.81;76.65
72602;DHT22;60644;55.858;37.390;2023-01-15T06:11:44;-0.85;76.60
72602;DHT22;60644;55.858;37.390;2023-01-15T06:14:11;-0.85;76.01
72602;DHT22;60644;55.858;37.390;2023-01-15T06:16:37;-0.87;76.27
72602;DHT22;60644;55.858;37.390;2023-01-15T06:19:05;-0.85;76.19
72602;DHT22;60644;55.858;37.390;2023-01-15T06:21:32;-0.83;76.05
72602;DHT22;60644;55.858;37.390;2023-01-15T06:23:59;-0.84;75.91
72602;DHT22;60644;55.858;37.390;2023-01-15T06:26:25;-0.75;75.72
72602;DHT22;60644;55.858;37.390;2023-01-15T06:28:51;-0.87;74.86
72602;DHT22;60644;55.858;37.390;2023-01-15T06:31:20;-0.83;75.17
72602;DHT22;60644;55.858;37.390;2023-01-15T06:33:46;-0.84;75.08
72602;DHT22;60644;55.858;37.390;2023-01-15T06:36:14;-0.84;74.89
72602;DHT22;60644;55.858;37.390;2023-01-15T06:38:44;-0.84;74.87
72602;DHT22;60644;55.858;37.390;2023-01-15T06:41:16;-0.84;74.89
72602;DHT22;60644;55.858;37.390;2023-01-15T06:44:02;-0.81;75.00
72602;DHT22;60644;55.858;37.390;2023-01-15T06:46:48;-0.83;75.25
72602;DHT22;60644;55.858;37.390;2023-01-15T06:49:36;-0.82;75.31
72602;DHT22;60644;55.858;37.390;2023-01-15T06:52:03;-0.76;75.59
72602;DHT22;60644;55.858;37.390;2023-01-15T06:54:30;-0.83;75.68
72602;DHT22;60644;55.858;37.390;2023-01-15T06:56:56;-0.80;75.77
72602;DHT22;60644;55.858;37.390;2023-01-15T06:59:23;-0.73;75.75
72602;DHT22;60644;55.858;37.390;2023-01-15T07:01:49;-0.69;75.51
72602;DHT22;60644;55.858;37.390;2023-01-15T07:04:15;-0.71;75.08
72602;DHT22;60644;55.858;37.390;2023-01-15T07:06:41;-0.70;74.81
72602;DHT22;60644;55.858;37.390;2023-01-15T07:09:09;-0.73;74.54
72602;DHT22;60644;55.858;37.390;2023-01-15T07:11:36;-0.70;74.29
72602;DHT22;60644;55.858;37.390;2023-01-15T07:14:19;-0.79;74.41
72602;DHT22;60644;55.858;37.390;2023-01-15T07:16:46;-0.75;74.04
72602;DHT22;60644;55.858;37.390;2023-01-15T07:19:12;-0.70;74.09
72602;DHT22;60644;55.858;37.390;2023-01-15T07:21:39;-0.65;74.07
72602;DHT22;60644;55.858;37.390;2023-01-15T07:24:05;-0.58;73.96
72602;DHT22;60644;55.858;37.390;2023-01-15T07:26:31;-0.51;73.71
72602;DHT22;60644;55.858;37.390;2023-01-15T07:29:00;-0.49;73.41
72602;DHT22;60644;55.858;37.390;2023-01-15T07:31:26;-0.59;73.32
72602;DHT22;60644;55.858;37.390;2023-01-15T07:33:55;-0.54;73.35
72602;DHT22;60644;55.858;37.390;2023-01-15T07:36:22;-0.54;73.26
72602;DHT22;60644;55.858;37.390;2023-01-15T07:38:47;-0.51;73.41
72602;DHT22;60644;55.858;37.390;2023-01-15T07:41:13;-0.45;73.35
72602;DHT22;60644;55.858;37.390;2023-01-15T07:43:58;-0.43;73.07
72602;DHT22;60644;55.858;37.390;2023-01-15T07:46:42;-0.44;72.97
72602;DHT22;60644;55.858;37.390;2023-01-15T07:49:27;-0.41;72.97
72602;DHT22;60644;55.858;37.390;2023-01-15T07:52:16;-0.45;72.93
72602;DHT22;60644;55.858;37.390;2023-01-15T07:54:43;-0.43;73.07
72602;DHT22;60644;55.858;37.390;2023-01-15T07:57:11;-0.44;72.99
72602;DHT22;60644;55.858;37.390;2023-01-15T07:59:38;-0.45;73.04
72602;DHT22;60644;55.858;37.390;2023-01-15T08:02:04;-0.39;72.96
72602;DHT22;60644;55.858;37.390;2023-01-15T08:04:30;-0.45;72.55
72602;DHT22;60644;55.858;37.390;2023-01-15T08:07:01;-0.45;72.54
72602;DHT22;60644;55.858;37.390;2023-01-15T08:09:35;-0.51;72.38
72602;DHT22;60644;55.858;37.390;2023-01-15T08:12:08;-0.60;72.55
72602;DHT22;60644;55.858;37.390;2023-01-15T08:14:53;-0.62;72.32
72602;DHT22;60644;55.858;37.390;2023-01-15T08:17:47;-0.66;72.43
72602;DHT22;60644;55.858;37.390;2023-01-15T08:20:19;-0.57;72.54
72602;DHT22;60644;55.858;37.390;2023-01-15T08:22:45;-0.56;72.48
72602;DHT22;60644;55.858;37.390;2023-01-15T08:25:17;-0.49;72.28
72602;DHT22;60644;55.858;37.390;2023-01-15T08:27:44;-0.47;72.23
72602;DHT22;60644;55.858;37.390;2023-01-15T08:30:12;-0.45;72.33
72602;DHT22;60644;55.858;37.390;2023-01-15T08:32:38;-0.46;72.14
72602;DHT22;60644;55.858;37.390;2023-01-15T08:35:05;-0.50;72.00
72602;DHT22;60644;55.858;37.390;2023-01-15T08:37:31;-0.47;72.00
72602;DHT22;60644;55.858;37.390;2023-01-15T08:39:57;-0.46;71.90
72602;DHT22;60644;55.858;37.390;2023-01-15T08:42:23;-0.44;71.95
72602;DHT22;60644;55.858;37.390;2023-01-15T08:44:49;-0.40;72.03
72602;DHT22;60644;55.858;37.390;2023-01-15T08:47:16;-0.43;71.59
72602;DHT22;60644;55.858;37.390;2023-01-15T08:49:42;-0.45;71.61
72602;DHT22;60644;55.858;37.390;2023-01-15T08:52:08;-0.43;71.65
72602;DHT22;60644;55.858;37.390;2023-01-15T08:54:34;-0.50;71.42
72602;DHT22;60644;55.858;37.390;2023-01-15T08:57:00;-0.43;71.68
72602;DHT22;60644;55.858;37.390;2023-01-15T08:59:26;-0.44;71.38
72602;DHT22;60644;55.858;37.390;2023-01-15T09:01:52;-0.55;71.38
72602;DHT22;60644;55.858;37.390;2023-01-15T09:04:19;-0.50;71.73
72602;DHT22;60644;55.858;37.390;2023-01-15T09:06:46;-0.42;71.72
72602;DHT22;60644;55.858;37.390;2023-01-15T09:09:13;-0.37;71.58
72602;DHT22;60644;55.858;37.390;2023-01-15T09:11:41;-0.40;71.28
72602;DHT22;60644;55.858;37.390;2023-01-15T09:14:10;-0.43;71.35
72602;DHT22;60644;55.858;37.390;2023-01-15T09:16:37;-0.40;71.22
72602;DHT22;60644;55.858;37.390;2023-01-15T09:19:04;-0.36;71.40
72602;DHT22;60644;55.858;37.390;2023-01-15T09:21:32;-0.31;71.55
72602;DHT22;60644;55.858;37.390;2023-01-15T09:23:58;-0.32;71.06
72602;DHT22;60644;55.858;37.390;2023-01-15T09:26:31;-0.30;71.25
72602;DHT22;60644;55.858;37.390;2023-01-15T09:28:58;-0.28;71.24
72602;DHT22;60644;55.858;37.390;2023-01-15T09:31:25;-0.42;70.71
72602;DHT22;60644;55.858;37.390;2023-01-15T09:33:51;-0.40;70.98
72602;DHT22;60644;55.858;37.390;2023-01-15T09:36:23;-0.37;71.00
72602;DHT22;60644;55.858;37.390;2023-01-15T09:38:49;-0.49;71.04
72602;DHT22;60644;55.858;37.390;2023-01-15T09:41:15;-0.39;71.16
72602;DHT22;60644;55.858;37.390;2023-01-15T09:44:25;-0.32;71.29
72602;DHT22;60644;55.858;37.390;2023-01-15T09:52:54;-0.24;70.81
72602;DHT22;60644;55.858;37.390;2023-01-15T09:55:27;-0.22;70.57
72602;DHT22;60644;55.858;37.390;2023-01-15T09:57:59;-0.15;70.81
72602;DHT22;60644;55.858;37.390;2023-01-15T10:00:32;-0.11;70.79
72602;DHT22;60644;55.858;37.390;2023-01-15T10:05:49;-0.20;70.51
72602;DHT22;60644;55.858;37.390;2023-01-15T10:08:43;-0.26;69.92
72602;DHT22;60644;55.858;37.390;2023-01-15T10:13:52;-0.28;70.55
72602;DHT22;60644;55.858;37.390;2023-01-15T10:16:22;-0.28;70.48
72602;DHT22;60644;55.858;37.390;2023-01-15T10:18:55;-0.21;70.61
72602;DHT22;60644;55.858;37.390;2023-01-15T10:26:37;-0.11;70.27
72602;DHT22;60644;55.858;37.390;2023-01-15T10:32:33;-0.07;70.29
72602;DHT22;60644;55.858;37.390;2023-01-15T10:45:57;0.12;70.29
72602;DHT22;60644;55.858;37.390;2023-01-15T10:48:41;0.10;70.18
72602;DHT22;60644;55.858;37.390;2023-01-15T10:51:39;0.06;70.04
72602;DHT22;60644;55.858;37.390;2023-01-15T10:57:13;0.06;70.01
72602;DHT22;60644;55.858;37.390;2023-01-15T10:59:58;0.08;70.23
72602;DHT22;60644;55.858;37.390;2023-01-15T11:02:36;0.01;69.49
72602;DHT22;60644;55.858;37.390;2023-01-15T11:05:04;0.07;69.90
72602;DHT22;60644;55.858;37.390;2023-01-15T11:07:38;0.08;69.78
72602;DHT22;60644;55.858;37.390;2023-01-15T11:10:07;0.08;69.51
72602;DHT22;60644;55.858;37.390;2023-01-15T11:12:38;0.05;69.72
72602;DHT22;60644;55.858;37.390;2023-01-15T11:15:24;0.07;70.05
72602;DHT22;60644;55.858;37.390;2023-01-15T11:18:15;0.07;69.92
72602;DHT22;60644;55.858;37.390;2023-01-15T11:21:09;0.07;69.71
72602;DHT22;60644;55.858;37.390;2023-01-15T11:23:36;0.07;69.59
72602;DHT22;60644;55.858;37.390;2023-01-15T11:26:02;0.12;69.50
72602;DHT22;60644;55.858;37.390;2023-01-15T11:28:37;0.14;69.15
72602;DHT22;60644;55.858;37.390;2023-01-15T11:31:09;0.05;69.01
72602;DHT22;60644;55.858;37.390;2023-01-15T11:33:36;0.14;69.61
72602;DHT22;60644;55.858;37.390;2023-01-15T11:36:18;0.17;69.25
72602;DHT22;60644;55.858;37.390;2023-01-15T11:38:48;0.20;69.40
72602;DHT22;60644;55.858;37.390;2023-01-15T11:41:26;0.20;68.50
72602;DHT22;60644;55.858;37.390;2023-01-15T11:44:13;0.24;69.23
72602;DHT22;60644;55.858;37.390;2023-01-15T11:46:57;0.28;69.64
72602;DHT22;60644;55.858;37.390;2023-01-15T11:49:52;0.28;69.39
72602;DHT22;60644;55.858;37.390;2023-01-15T11:52:46;0.33;69.21
72602;DHT22;60644;55.858;37.390;2023-01-15T11:55:18;0.37;69.45
72602;DHT22;60644;55.858;37.390;2023-01-15T11:57:45;0.37;68.81
72602;DHT22;60644;55.858;37.390;2023-01-15T12:02:47;0.38;69.05
72602;DHT22;60644;55.858;37.390;2023-01-15T12:05:19;0.36;68.41
72602;DHT22;60644;55.858;37.390;2023-01-15T12:07:47;0.40;68.75
72602;DHT22;60644;55.858;37.390;2023-01-15T12:10:25;0.48;68.71
72602;DHT22;60644;55.858;37.390;2023-01-15T12:24:40;0.46;68.49
72602;DHT22;60644;55.858;37.390;2023-01-15T12:29:57;0.50;67.83
72602;DHT22;60644;55.858;37.390;2023-01-15T12:32:30;0.50;68.18
72602;DHT22;60644;55.858;37.390;2023-01-15T12:35:03;0.53;68.35
72602;DHT22;60644;55.858;37.390;2023-01-15T12:37:38;0.49;67.58
72602;DHT22;60644;55.858;37.390;2023-01-15T12:42:41;0.45;67.29
72602;DHT22;60644;55.858;37.390;2023-01-15T12:45:31;0.44;67.36
72602;DHT22;60644;55.858;37.390;2023-01-15T12:50:58;0.40;66.83
72602;DHT22;60644;55.858;37.390;2023-01-15T12:53:48;0.45;67.62
72602;DHT22;60644;55.858;37.390;2023-01-15T12:56:41;0.44;67.65
72602;DHT22;60644;55.858;37.390;2023-01-15T12:59:28;0.38;66.77
72602;DHT22;60644;55.858;37.390;2023-01-15T13:05:29;0.34;67.02
72602;DHT22;60644;55.858;37.390;2023-01-15T13:07:39;0.33;67.59
72602;DHT22;60644;55.858;37.390;2023-01-15T13:10:18;0.28;67.66
72602;DHT22;60644;55.858;37.390;2023-01-15T13:12:45;0.27;67.60
72602;DHT22;60644;55.858;37.390;2023-01-15T13:15:19;0.23;67.17
72602;DHT22;60644;55.858;37.390;2023-01-15T13:23:23;0.33;67.84
72602;DHT22;60644;55.858;37.390;2023-01-15T13:33:53;0.40;67.80
72602;DHT22;60644;55.858;37.390;2023-01-15T13:36:24;0.38;67.43
72602;DHT22;60644;55.858;37.390;2023-01-15T13:38:54;0.37;67.92
72602;DHT22;60644;55.858;37.390;2023-01-15T13:41:24;0.36;67.61
72602;DHT22;60644;55.858;37.390;2023-01-15T13:44:30;0.25;67.18
72602;DHT22;60644;55.858;37.390;2023-01-15T13:49:33;0.29;67.50
72602;DHT22;60644;55.858;37.390;2023-01-15T13:52:01;0.32;67.59
72602;DHT22;60644;55.858;37.390;2023-01-15T13:54:35;0.32;67.38
72602;DHT22;60644;55.858;37.390;2023-01-15T13:57:34;0.34;67.40
72602;DHT22;60644;55.858;37.390;2023-01-15T14:00:26;0.34;67.22
72602;DHT22;60644;55.858;37.390;2023-01-15T14:02:54;0.36;67.80
72602;DHT22;60644;55.858;37.390;2023-01-15T14:07:53;0.36;67.30
72602;DHT22;60644;55.858;37.390;2023-01-15T14:10:31;0.35;67.17
72602;DHT22;60644;55.858;37.390;2023-01-15T14:15:56;0.32;67.50
72602;DHT22;60644;55.858;37.390;2023-01-15T14:21:49;0.30;66.81
72602;DHT22;60644;55.858;37.390;2023-01-15T14:24:19;0.27;66.75
72602;DHT22;60644;55.858;37.390;2023-01-15T14:35:15;0.29;67.02
72602;DHT22;60644;55.858;37.390;2023-01-15T14:37:55;0.23;66.87
72602;DHT22;60644;55.858;37.390;2023-01-15T14:40:23;0.20;66.75
72602;DHT22;60644;55.858;37.390;2023-01-15T14:42:53;0.20;67.21
72602;DHT22;60644;55.858;37.390;2023-01-15T14:45:29;0.19;66.45
72602;DHT22;60644;55.858;37.390;2023-01-15T14:47:58;0.19;66.83
72602;DHT22;60644;55.858;37.390;2023-01-15T14:50:36;0.23;67.62
72602;DHT22;60644;55.858;37.390;2023-01-15T14:55:32;0.18;66.85
72602;DHT22;60644;55.858;37.390;2023-01-15T14:58:13;0.19;66.83
72602;DHT22;60644;55.858;37.390;2023-01-15T15:00:43;0.17;66.69
72602;DHT22;60644;55.858;37.390;2023-01-15T15:03:16;0.14;66.69
72602;DHT22;60644;55.858;37.390;2023-01-15T15:05:45;0.16;66.98
72602;DHT22;60644;55.858;37.390;2023-01-15T15:08:16;0.14;67.04
72602;DHT22;60644;55.858;37.390;2023-01-15T15:10:45;0.15;67.13
72602;DHT22;60644;55.858;37.390;2023-01-15T15:13:21;0.17;67.14
72602;DHT22;60644;55.858;37.390;2023-01-15T15:16:06;0.21;67.04
72602;DHT22;60644;55.858;37.390;2023-01-15T15:18:43;0.14;66.40
72602;DHT22;60644;55.858;37.390;2023-01-15T15:21:28;0.16;67.64
72602;DHT22;60644;55.858;37.390;2023-01-15T15:29:02;0.01;66.94
72602;DHT22;60644;55.858;37.390;2023-01-15T15:31:55;-0.01;66.55
72602;DHT22;60644;55.858;37.390;2023-01-15T15:34:31;-0.02;66.61
72602;DHT22;60644;55.858;37.390;2023-01-15T15:37:00;-0.05;66.57
72602;DHT22;60644;55.858;37.390;2023-01-15T15:42:37;-0.10;66.56
72602;DHT22;60644;55.858;37.390;2023-01-15T15:45:25;-0.11;66.84
72602;DHT22;60644;55.858;37.390;2023-01-15T15:48:21;-0.11;67.07
72602;DHT22;60644;55.858;37.390;2023-01-15T15:51:29;-0.12;67.05
72602;DHT22;60644;55.858;37.390;2023-01-15T15:54:18;-0.14;67.07
72602;DHT22;60644;55.858;37.390;2023-01-15T15:59:29;-0.10;66.49
72602;DHT22;60644;55.858;37.390;2023-01-15T16:01:57;-0.15;66.59
72602;DHT22;60644;55.858;37.390;2023-01-15T16:04:25;-0.20;65.88
72602;DHT22;60644;55.858;37.390;2023-01-15T16:06:51;-0.16;66.46
72602;DHT22;60644;55.858;37.390;2023-01-15T16:09:21;-0.13;66.33
72602;DHT22;60644;55.858;37.390;2023-01-15T16:11:48;-0.13;66.58
72602;DHT22;60644;55.858;37.390;2023-01-15T16:14:15;-0.12;66.85
72602;DHT22;60644;55.858;37.390;2023-01-15T16:16:43;-0.17;66.24
72602;DHT22;60644;55.858;37.390;2023-01-15T16:19:16;-0.16;66.33
72602;DHT22;60644;55.858;37.390;2023-01-15T16:21:43;-0.15;66.78
72602;DHT22;60644;55.858;37.390;2023-01-15T16:24:24;-0.22;66.51
72602;DHT22;60644;55.858;37.390;2023-01-15T16:27:06;-0.16;66.69
72602;DHT22;60644;55.858;37.390;2023-01-15T16:29:34;-0.13;66.96
72602;DHT22;60644;55.858;37.390;2023-01-15T16:32:09;-0.17;66.11
72602;DHT22;60644;55.858;37.390;2023-01-15T16:34:35;-0.16;66.68
72602;DHT22;60644;55.858;37.390;2023-01-15T16:37:01;-0.15;66.68
72602;DHT22;60644;55.858;37.390;2023-01-15T16:39:31;-0.15;66.53
72602;DHT22;60644;55.858;37.390;2023-01-15T16:41:59;-0.14;66.85
72602;DHT22;60644;55.858;37.390;2023-01-15T16:44:38;-0.17;66.04
72602;DHT22;60644;55.858;37.390;2023-01-15T16:47:05;-0.20;66.31
72602;DHT22;60644;55.858;37.390;2023-01-15T16:49:32;-0.22;66.34
72602;DHT22;60644;55.858;37.390;2023-01-15T16:52:00;-0.20;66.44
72602;DHT22;60644;55.858;37.390;2023-01-15T16:57:01;-0.20;66.04
72602;DHT22;60644;55.858;37.390;2023-01-15T17:02:02;-0.22;65.91
72602;DHT22;60644;55.858;37.390;2023-01-15T17:04:34;-0.20;66.47
72602;DHT22;60644;55.858;37.390;2023-01-15T17:09:36;-0.19;65.62
72602;DHT22;60644;55.858;37.390;2023-01-15T17:12:06;-0.14;66.23
72602;DHT22;60644;55.858;37.390;2023-01-15T17:14:32;-0.14;66.24
72602;DHT22;60644;55.858;37.390;2023-01-15T17:19:49;-0.22;65.13
72602;DHT22;60644;55.858;37.390;2023-01-15T17:22:28;-0.20;66.02
72602;DHT22;60644;55.858;37.390;2023-01-15T17:24:57;-0.17;66.56
72602;DHT22;60644;55.858;37.390;2023-01-15T17:27:27;-0.16;66.46
72602;DHT22;60644;55.858;37.390;2023-01-15T17:29:54;-0.20;65.87
72602;DHT22;60644;55.858;37.390;2023-01-15T17:32:32;-0.24;65.78
72602;DHT22;60644;55.858;37.390;2023-01-15T17:35:03;-0.25;66.23
72602;DHT22;60644;55.858;37.390;2023-01-15T17:37:29;-0.32;65.62
72602;DHT22;60644;55.858;37.390;2023-01-15T17:39:55;-0.34;66.24
72602;DHT22;60644;55.858;37.390;2023-01-15T17:42:21;-0.36;66.43
72602;DHT22;60644;55.858;37.390;2023-01-15T17:44:47;-0.34;66.83
72602;DHT22;60644;55.858;37.390;2023-01-15T17:47:14;-0.34;66.70
72602;DHT22;60644;55.858;37.390;2023-01-15T17:49:40;-0.34;67.23
72602;DHT22;60644;55.858;37.390;2023-01-15T17:52:14;-0.36;66.88
72602;DHT22;60644;55.858;37.390;2023-01-15T17:54:41;-0.32;66.79
72602;DHT22;60644;55.858;37.390;2023-01-15T17:57:25;-0.30;66.81
72602;DHT22;60644;55.858;37.390;2023-01-15T18:00:10;-0.32;66.78
72602;DHT22;60644;55.858;37.390;2023-01-15T18:02:55;-0.40;66.35
72602;DHT22;60644;55.858;37.390;2023-01-15T18:05:40;-0.39;66.30
72602;DHT22;60644;55.858;37.390;2023-01-15T18:08:08;-0.44;66.21
72602;DHT22;60644;55.858;37.390;2023-01-15T18:10:35;-0.43;66.46
72602;DHT22;60644;55.858;37.390;2023-01-15T18:13:01;-0.43;66.60